Estación de Coihueco

Ultimos registro cada 15 minutos 26
Estación Fecha / Hora Temperatura Humedad Lluvia Velocidad Dirección Radiación Presion
26 Coihueco 07-05-2026 06:15 0,7 100 0 0 268 0,6 1000,4
25 Coihueco 07-05-2026 06:00 1,5 100 0 0 268 0,6 1000,3
24 Coihueco 07-05-2026 05:45 1,4 100 0 0 268 0,6 1000,3
23 Coihueco 07-05-2026 05:30 1,7 100 0 0 268 0,6 1000
22 Coihueco 07-05-2026 05:15 1 100 0 0 268 0,6 999,7
21 Coihueco 07-05-2026 05:00 2,7 99,8 0 0 268 0,6 999,6
20 Coihueco 07-05-2026 04:45 3,2 100 0 0,5 270 0,6 999,6
19 Coihueco 07-05-2026 04:30 2,5 100 0 0 275 0,6 999,3
18 Coihueco 07-05-2026 04:15 2 98,9 0 0 275 0,6 999,1
17 Coihueco 07-05-2026 04:00 2,5 100 0 0 275 0,6 999,1
16 Coihueco 07-05-2026 03:45 2,7 100 0 0 275 0,6 999,1
15 Coihueco 07-05-2026 03:30 2,7 99,1 0 0 275 0,6 999,1
14 Coihueco 07-05-2026 03:15 3,4 97,8 0 0 275 0,6 998,9
13 Coihueco 07-05-2026 03:00 4,4 98,3 0 0 212 0,6 999
12 Coihueco 07-05-2026 02:45 4,7 97,3 0 0 199 0,6 999,1
11 Coihueco 07-05-2026 02:30 5,2 96,3 0 0 199 0,6 999
10 Coihueco 07-05-2026 02:15 5,6 93,3 0 0 199 0,6 998,7
9 Coihueco 07-05-2026 02:00 6,5 92,5 0 1 202 0,6 998,9
8 Coihueco 07-05-2026 01:45 6,1 94,7 0 1 215 0,6 998,7
7 Coihueco 07-05-2026 01:30 5,8 95,3 0 1 211 0,6 998,3
6 Coihueco 07-05-2026 01:15 5,8 97,3 0 1 222 0,6 998,3
5 Coihueco 07-05-2026 01:00 6,1 97,6 0 1 234 0,6 998,4
4 Coihueco 07-05-2026 00:45 6,4 97,1 0 0,5 225 0,6 998,2
3 Coihueco 07-05-2026 00:30 7,1 96,3 0 1 202 0,6 998,3
2 Coihueco 07-05-2026 00:15 7,6 96,5 0 1 212 0,6 998
1 Coihueco 07-05-2026 00:00 7,5 96,9 0 1 254 0,6 997,9